2FL2 weather

Pbso-West County Jail Heliport
Belle Glade, Florida, United States

Public forecast

Using degrees Fahrenheit for public forecast. Weather courtesy of forecast.io.

METAR (pilot weather report)

Closest report is Palm Beach International Airport, 30.6 nm (56.7 km) E. Retrieved 2019/06/20 11:53 UTC (43 minutes ago):

KPBI 201153Z 24003KT 10SM FEW022 FEW250 27/25 A3005 RMK AO2 SLP176 70036 T02720250 10272 20250 53021

TAF (pilot weather forecast)

Closest forecast is Palm Beach International Airport, 30.6 nm (56.7 km) E. Retrieved 2019/06/20 12:23 UTC (13 minutes ago):

TAF KPBI 201120Z 2012/2112 VRB05KT P6SM FEW020 SCT250 FM201400 20010KT P6SM SCT025 SCT070 SCT250 FM210000 VRB05KT P6SM SCT025 BKN250